createdAt,value
2023-04-12T00:01:39.885Z,0.95
2023-04-12T00:04:10.039Z,0.98
2023-04-12T00:06:36.948Z,1.02
2023-04-12T00:09:04.140Z,1.20
2023-04-12T00:11:33.777Z,0.80
2023-04-12T00:14:00.542Z,1.75
2023-04-12T00:16:29.929Z,1.00
2023-04-12T00:18:59.297Z,0.80
2023-04-12T00:21:29.673Z,0.95
2023-04-12T00:23:57.047Z,1.20
2023-04-12T00:26:25.418Z,0.90
2023-04-12T00:28:52.042Z,1.08
2023-04-12T00:31:19.481Z,0.98
2023-04-12T00:33:48.505Z,0.88
2023-04-12T00:36:17.495Z,1.02
2023-04-12T00:38:51.420Z,1.00
2023-04-12T00:41:18.040Z,0.93
2023-04-12T00:43:44.701Z,1.40
2023-04-12T00:46:12.148Z,0.90
2023-04-12T00:48:39.250Z,1.13
2023-04-12T00:51:07.200Z,1.00
2023-04-12T00:53:34.282Z,1.27
2023-04-12T00:56:01.558Z,1.48
2023-04-12T00:58:28.115Z,1.40
2023-04-12T01:00:54.813Z,1.00
2023-04-12T01:03:23.656Z,0.85
2023-04-12T01:06:13.367Z,0.90
2023-04-12T01:09:01.202Z,1.20
2023-04-12T01:11:32.530Z,1.00
2023-04-12T01:14:03.137Z,1.05
2023-04-12T01:16:41.344Z,0.73
2023-04-12T01:19:31.261Z,1.67
2023-04-12T01:22:19.639Z,0.65
2023-04-12T01:24:46.694Z,0.70
2023-04-12T01:27:33.285Z,0.70
2023-04-12T01:30:06.395Z,0.70
2023-04-12T01:32:34.701Z,0.90
2023-04-12T01:35:07.294Z,0.93
2023-04-12T01:37:35.882Z,1.08
2023-04-12T01:40:07.874Z,0.90
2023-04-12T01:42:38.070Z,0.75
2023-04-12T01:45:05.330Z,1.08
2023-04-12T01:47:34.415Z,0.80
2023-04-12T01:50:14.670Z,1.15
2023-04-12T01:53:09.969Z,0.95
2023-04-12T01:55:39.189Z,0.93
2023-04-12T01:58:15.647Z,0.80
2023-04-12T02:00:44.950Z,0.80
2023-04-12T02:03:12.656Z,0.98
2023-04-12T02:05:41.116Z,0.80
2023-04-12T02:08:07.879Z,0.73
2023-04-12T02:10:42.485Z,0.80
2023-04-12T02:13:20.924Z,0.90
2023-04-12T02:15:47.804Z,1.00
2023-04-12T02:18:16.788Z,0.50
2023-04-12T02:20:46.439Z,0.70
2023-04-12T02:23:13.122Z,0.60
2023-04-12T02:25:41.212Z,0.75
2023-04-12T02:28:08.102Z,1.00
2023-04-12T02:30:35.571Z,0.73
2023-04-12T02:33:05.794Z,0.70
2023-04-12T02:35:36.262Z,0.95
2023-04-12T02:38:08.417Z,0.60
2023-04-12T02:40:41.966Z,0.80
2023-04-12T02:43:12.597Z,0.63
2023-04-12T02:45:45.130Z,0.70
2023-04-12T02:48:12.006Z,0.52
2023-04-12T02:50:38.850Z,1.02
2023-04-12T02:53:18.850Z,0.60
2023-04-12T02:55:57.184Z,0.77
2023-04-12T02:58:30.014Z,0.80
2023-04-12T03:00:59.981Z,0.40
2023-04-12T03:03:31.908Z,0.50
2023-04-12T03:06:05.113Z,0.80
2023-04-12T03:08:32.798Z,0.50
2023-04-12T03:10:59.550Z,0.95
2023-04-12T03:13:27.873Z,0.60
2023-04-12T03:15:58.012Z,0.60
2023-04-12T03:18:31.371Z,0.75
2023-04-12T03:21:00.189Z,1.00
2023-04-12T03:23:30.454Z,0.55
2023-04-12T03:26:09.799Z,0.88
2023-04-12T03:28:38.416Z,0.40
2023-04-12T03:31:07.064Z,0.68
2023-04-12T03:33:40.849Z,0.68
2023-04-12T03:36:16.587Z,0.60
2023-04-12T03:38:49.888Z,0.98
2023-04-12T03:41:17.739Z,0.75
2023-04-12T03:43:44.493Z,0.50
2023-04-12T03:46:20.048Z,0.52
2023-04-12T03:48:54.085Z,0.57
2023-04-12T03:51:26.590Z,0.60
2023-04-12T03:54:02.655Z,0.85
2023-04-12T03:56:33.706Z,1.05
2023-04-12T03:59:07.596Z,0.52
2023-04-12T04:01:35.822Z,0.52
2023-04-12T04:04:03.493Z,0.60
2023-04-12T04:06:31.371Z,0.63
2023-04-12T04:08:58.148Z,0.40
2023-04-12T04:11:27.716Z,0.55
2023-04-12T04:14:03.909Z,0.60
2023-04-12T04:16:31.215Z,0.63
2023-04-12T04:18:59.753Z,0.50
2023-04-12T04:21:26.692Z,0.88
2023-04-12T04:24:04.524Z,0.73
2023-04-12T04:26:38.201Z,0.70
2023-04-12T04:29:11.771Z,0.50
2023-04-12T04:31:39.591Z,0.50
2023-04-12T04:34:09.201Z,0.60
2023-04-12T04:36:41.866Z,0.82
2023-04-12T04:39:09.153Z,0.70
2023-04-12T04:41:41.132Z,0.60
2023-04-12T04:44:18.058Z,0.85
2023-04-12T04:46:52.601Z,0.90
2023-04-12T04:49:19.351Z,0.68
2023-04-12T04:51:46.838Z,0.73
2023-04-12T04:54:14.040Z,0.60
2023-04-12T04:56:42.080Z,0.68
2023-04-12T04:59:11.037Z,0.82
2023-04-12T05:01:38.085Z,1.00
2023-04-12T05:04:05.006Z,0.63
2023-04-12T05:06:32.730Z,0.75
2023-04-12T05:09:01.592Z,0.93
2023-04-12T05:11:29.947Z,0.68
2023-04-12T05:13:57.073Z,1.30
2023-04-12T05:16:26.570Z,0.88
2023-04-12T05:18:53.147Z,0.60
2023-04-12T05:21:19.789Z,0.75
2023-04-12T05:23:47.187Z,0.82
2023-04-12T05:26:14.054Z,0.70
2023-04-12T05:28:45.050Z,0.50
2023-04-12T05:31:14.531Z,0.70
2023-04-12T05:33:41.130Z,0.60
2023-04-12T05:36:08.596Z,0.70
2023-04-12T05:38:35.542Z,0.40
2023-04-12T05:41:06.735Z,0.50
2023-04-12T05:43:34.056Z,0.60
2023-04-12T05:46:01.868Z,0.70
2023-04-12T05:48:28.608Z,0.50
2023-04-12T05:50:57.711Z,0.60
2023-04-12T05:53:24.366Z,0.60
2023-04-12T05:55:51.651Z,0.40
2023-04-12T05:58:18.994Z,0.93
2023-04-12T06:00:46.825Z,0.52
2023-04-12T06:03:13.520Z,0.73
2023-04-12T06:05:40.947Z,0.50
2023-04-12T06:08:08.181Z,0.52
2023-04-12T06:10:34.780Z,0.90
2023-04-12T06:13:03.343Z,0.90
2023-04-12T06:15:31.910Z,0.68
2023-04-12T06:18:00.285Z,0.70
2023-04-12T06:20:27.413Z,0.77
2023-04-12T06:22:54.642Z,0.85
2023-04-12T06:25:25.279Z,0.60
2023-04-12T06:27:53.446Z,0.93
2023-04-12T06:30:21.485Z,0.60
2023-04-12T06:32:51.429Z,1.15
2023-04-12T06:35:20.072Z,0.90
2023-04-12T06:37:46.786Z,0.75
2023-04-12T06:40:13.430Z,0.80
2023-04-12T06:42:40.299Z,0.80
2023-04-12T06:45:07.507Z,0.75
2023-04-12T06:47:34.108Z,0.52
2023-04-12T06:50:00.779Z,0.65
2023-04-12T06:52:27.533Z,0.68
2023-04-12T06:54:55.965Z,0.70
2023-04-12T06:57:22.534Z,0.70
2023-04-12T06:59:49.161Z,0.60
2023-04-12T07:02:18.378Z,0.90
2023-04-12T07:04:45.186Z,0.50
2023-04-12T07:07:11.794Z,0.60
2023-04-12T07:09:38.555Z,0.65
2023-04-12T07:12:05.343Z,0.52
2023-04-12T07:14:31.873Z,0.60
2023-04-12T07:16:58.439Z,0.80
2023-04-12T07:19:25.034Z,0.90
2023-04-12T07:21:51.704Z,0.73
2023-04-12T07:24:18.283Z,0.80
2023-04-12T07:26:45.053Z,0.43
2023-04-12T07:29:11.678Z,0.43
2023-04-12T07:31:38.228Z,0.57
2023-04-12T07:34:04.892Z,0.60
2023-04-12T07:36:31.757Z,0.63
2023-04-12T07:38:58.513Z,0.60
2023-04-12T07:41:25.265Z,0.63
2023-04-12T07:43:51.929Z,0.70
2023-04-12T07:46:18.603Z,0.70
2023-04-12T07:48:45.367Z,0.50
2023-04-12T07:51:14.492Z,0.60
2023-04-12T07:53:41.909Z,0.40
2023-04-12T07:56:08.783Z,0.70
2023-04-12T07:58:35.473Z,0.52
2023-04-12T08:01:02.217Z,0.50
2023-04-12T08:03:29.139Z,0.43
2023-04-12T08:05:58.586Z,0.50
2023-04-12T08:08:25.743Z,0.40
2023-04-12T08:10:52.889Z,0.47
2023-04-12T08:13:20.559Z,0.50
2023-04-12T08:15:47.372Z,0.80
2023-04-12T08:18:14.478Z,0.47
2023-04-12T08:20:41.386Z,0.40
2023-04-12T08:23:07.984Z,0.70
2023-04-12T08:25:34.675Z,0.80
2023-04-12T08:28:01.325Z,0.60
2023-04-12T08:30:28.238Z,0.50
2023-04-12T08:32:54.846Z,0.68
2023-04-12T08:35:22.802Z,0.80
2023-04-12T08:37:49.612Z,0.50
2023-04-12T08:40:16.479Z,0.52
2023-04-12T08:42:43.522Z,0.32
2023-04-12T08:45:11.766Z,0.30
2023-04-12T08:47:44.289Z,0.50
2023-04-12T08:50:16.593Z,0.55
2023-04-12T08:52:43.321Z,0.38
2023-04-12T08:55:11.046Z,0.20
2023-04-12T08:57:41.188Z,0.40
2023-04-12T09:00:09.457Z,0.40
2023-04-12T09:02:38.237Z,0.40
2023-04-12T09:05:06.495Z,1.63
2023-04-12T09:07:33.610Z,3.40
2023-04-12T09:10:00.221Z,4.10
2023-04-12T09:12:27.142Z,2.95
2023-04-12T09:15:15.181Z,2.63
2023-04-12T09:17:45.344Z,2.20
2023-04-12T09:20:17.908Z,1.83
2023-04-12T09:22:46.232Z,2.20
2023-04-12T09:25:14.752Z,1.80
2023-04-12T09:27:48.039Z,1.65
2023-04-12T09:30:16.901Z,2.47
2023-04-12T09:32:44.029Z,2.20
2023-04-12T09:35:11.056Z,1.92
2023-04-12T09:37:37.714Z,2.17
2023-04-12T09:40:07.007Z,1.90
2023-04-12T09:42:35.022Z,2.28
2023-04-12T09:45:22.310Z,2.28
2023-04-12T09:47:49.834Z,2.78
2023-04-12T09:50:24.537Z,3.08
2023-04-12T09:52:52.994Z,3.28
2023-04-12T09:55:23.105Z,3.28
2023-04-12T09:57:51.713Z,2.97
2023-04-12T10:00:22.307Z,3.30
2023-04-12T10:02:52.079Z,3.22
2023-04-12T10:05:21.960Z,3.58
2023-04-12T10:07:49.165Z,3.05
2023-04-12T10:10:18.411Z,3.25
2023-04-12T10:12:47.282Z,2.75
2023-04-12T10:15:16.939Z,2.85
2023-04-12T10:17:49.810Z,3.03
2023-04-12T10:20:21.203Z,2.78
2023-04-12T10:22:50.293Z,2.53
2023-04-12T10:25:19.823Z,2.78
2023-04-12T10:27:47.362Z,2.85
2023-04-12T10:30:25.719Z,2.60
2023-04-12T10:33:04.878Z,2.47
2023-04-12T10:36:00.838Z,2.47
2023-04-12T10:38:34.567Z,2.28
2023-04-12T10:41:17.338Z,2.42
2023-04-12T10:43:49.256Z,2.33
2023-04-12T10:46:45.279Z,2.95
2023-04-12T10:49:13.636Z,2.10
2023-04-12T10:52:03.661Z,3.63
2023-04-12T10:54:32.352Z,2.80
2023-04-12T10:56:59.021Z,2.58
2023-04-12T10:59:51.456Z,2.80
2023-04-12T11:02:18.303Z,3.13
2023-04-12T11:05:10.952Z,2.53
2023-04-12T11:07:58.904Z,3.88
2023-04-12T11:10:46.717Z,3.58
2023-04-12T11:13:20.528Z,3.13
2023-04-12T11:15:47.146Z,4.50
2023-04-12T11:18:14.244Z,4.65
2023-04-12T11:20:41.023Z,4.65
2023-04-12T11:23:11.463Z,4.72
2023-04-12T11:25:38.458Z,3.55
2023-04-12T11:28:17.319Z,3.63
2023-04-12T11:30:55.857Z,3.33
2023-04-12T11:33:36.680Z,3.03
2023-04-12T11:36:12.170Z,2.85
2023-04-12T11:38:39.458Z,3.78
2023-04-12T11:41:08.179Z,3.50
2023-04-12T11:43:39.045Z,2.80
2023-04-12T11:46:06.250Z,2.28
2023-04-12T11:48:33.111Z,2.85
2023-04-12T11:51:10.263Z,3.10
2023-04-12T11:53:38.867Z,2.88
2023-04-12T11:56:05.887Z,3.00
2023-04-12T11:58:33.062Z,2.95
2023-04-12T12:01:00.702Z,2.10
2023-04-12T12:03:27.970Z,2.65
2023-04-12T12:05:55.151Z,2.20
2023-04-12T12:08:24.171Z,2.25
2023-04-12T12:11:06.485Z,2.60
2023-04-12T12:13:54.491Z,2.80
2023-04-12T12:16:26.249Z,1.77
2023-04-12T12:18:53.262Z,1.83
2023-04-12T12:21:19.973Z,1.55
2023-04-12T12:23:47.657Z,1.58
2023-04-12T12:26:30.530Z,2.13
2023-04-12T12:29:00.138Z,1.73
2023-04-12T12:31:28.253Z,1.88
2023-04-12T12:34:00.998Z,1.90
2023-04-12T12:36:32.669Z,1.40
2023-04-12T12:39:11.239Z,1.73
2023-04-12T12:41:39.021Z,1.45
2023-04-12T12:44:08.780Z,1.60
2023-04-12T12:49:05.214Z,2.08
2023-04-12T12:51:31.854Z,2.17
2023-04-12T12:53:58.577Z,2.00
2023-04-12T12:56:25.473Z,1.65
2023-04-12T12:58:52.192Z,1.40
2023-04-12T13:01:18.801Z,2.35
2023-04-12T13:03:45.661Z,1.85
2023-04-12T13:06:12.426Z,2.00
2023-04-12T13:08:38.997Z,1.80
2023-04-12T13:11:06.122Z,1.33
2023-04-12T13:13:32.724Z,1.42
2023-04-12T13:15:59.362Z,1.05
2023-04-12T13:18:26.386Z,1.65
2023-04-12T13:20:53.043Z,1.20
2023-04-12T13:23:21.943Z,1.88
2023-04-12T13:25:48.617Z,2.10
2023-04-12T13:28:16.896Z,2.17
2023-04-12T13:30:44.854Z,2.30
2023-04-12T13:33:17.299Z,2.10
2023-04-12T13:35:45.886Z,1.85
2023-04-12T13:38:12.488Z,2.22
2023-04-12T13:40:39.061Z,2.35
2023-04-12T13:43:07.443Z,1.40
2023-04-12T13:45:34.350Z,1.55
2023-04-12T13:48:01.223Z,1.40
2023-04-12T13:50:28.308Z,0.85
2023-04-12T13:52:54.885Z,1.33
2023-04-12T13:55:21.538Z,1.20
2023-04-12T13:57:48.161Z,1.40
2023-04-12T14:00:15.415Z,1.55
2023-04-12T14:02:42.033Z,1.10
2023-04-12T14:05:08.974Z,1.30
2023-04-12T14:07:37.749Z,1.27
2023-04-12T14:10:04.733Z,1.83
2023-04-12T14:12:31.357Z,1.73
2023-04-12T14:14:57.986Z,0.95
2023-04-12T14:17:24.723Z,1.33
2023-04-12T14:19:51.599Z,1.65
2023-04-12T14:22:20.575Z,1.77
2023-04-12T14:24:47.140Z,0.90
2023-04-12T14:27:15.986Z,0.77
2023-04-12T14:29:44.361Z,1.02
2023-04-12T14:32:11.128Z,0.60
2023-04-12T14:34:37.976Z,0.90
2023-04-12T14:37:04.558Z,0.80
2023-04-12T14:39:31.178Z,0.52
2023-04-12T14:41:57.878Z,0.88
2023-04-12T14:44:26.231Z,0.40
2023-04-12T14:46:53.388Z,0.28
2023-04-12T14:49:20.011Z,0.45
2023-04-12T14:51:46.766Z,0.88
2023-04-12T14:54:13.318Z,0.52
2023-04-12T14:56:49.430Z,0.43
2023-04-12T14:59:18.035Z,0.47
2023-04-12T15:01:44.727Z,0.40
2023-04-12T15:04:11.750Z,0.70
2023-04-12T15:06:42.332Z,0.30
2023-04-12T15:09:09.740Z,0.50
2023-04-12T15:11:38.322Z,0.47
2023-04-12T15:14:06.978Z,0.30
2023-04-12T15:16:34.877Z,1.65
2023-04-12T15:19:08.563Z,1.13
2023-04-12T15:21:37.984Z,0.47
2023-04-12T15:24:05.637Z,0.45
2023-04-12T15:26:33.646Z,0.50
2023-04-12T15:29:00.373Z,0.63
2023-04-12T15:31:27.504Z,0.90
2023-04-12T15:33:54.056Z,0.57
2023-04-12T15:36:21.679Z,0.45
2023-04-12T15:38:48.273Z,0.35
2023-04-12T15:41:17.331Z,0.40
2023-04-12T15:43:49.070Z,0.40
2023-04-12T15:46:16.164Z,0.90
2023-04-12T15:48:42.966Z,0.50
2023-04-12T15:51:09.835Z,0.50
2023-04-12T15:53:36.829Z,0.80
2023-04-12T15:56:04.327Z,0.50
2023-04-12T15:58:31.016Z,0.50
2023-04-12T16:00:57.861Z,0.40
2023-04-12T16:03:25.980Z,0.20
2023-04-12T16:05:53.354Z,0.88
2023-04-12T16:08:21.009Z,0.30
2023-04-12T16:10:48.518Z,0.20
2023-04-12T16:13:15.669Z,0.30
2023-04-12T16:15:42.367Z,0.50
2023-04-12T16:18:09.157Z,0.20
2023-04-12T16:20:35.910Z,0.20
2023-04-12T16:23:03.545Z,0.13
2023-04-12T16:25:30.215Z,0.35
2023-04-12T16:27:57.066Z,0.20
2023-04-12T16:30:24.158Z,0.15
2023-04-12T16:32:51.118Z,0.10
2023-04-12T16:35:17.846Z,0.20
2023-04-12T16:37:45.351Z,0.20
2023-04-12T16:40:12.794Z,0.20
2023-04-12T16:42:43.677Z,0.10
2023-04-12T16:45:11.791Z,0.10
2023-04-12T16:47:39.677Z,0.30
2023-04-12T16:50:09.021Z,0.50
2023-04-12T16:52:36.590Z,0.40
2023-04-12T16:55:04.010Z,0.77
2023-04-12T16:57:30.945Z,0.50
2023-04-12T16:59:57.559Z,0.40
2023-04-12T17:02:27.180Z,0.20
2023-04-12T17:04:53.873Z,0.20
2023-04-12T17:07:20.433Z,0.20
2023-04-12T17:09:48.227Z,0.22
2023-04-12T17:12:14.788Z,0.50
2023-04-12T17:14:51.027Z,0.30
2023-04-12T17:17:17.596Z,0.22
2023-04-12T17:19:47.147Z,0.50
2023-04-12T17:22:13.775Z,0.38
2023-04-12T17:24:42.377Z,0.47
2023-04-12T17:27:12.650Z,0.60
2023-04-12T17:29:39.283Z,0.50
2023-04-12T17:32:06.918Z,0.47
2023-04-12T17:34:34.983Z,0.30
2023-04-12T17:37:04.061Z,0.40
2023-04-12T17:39:30.764Z,0.40
2023-04-12T17:41:59.621Z,0.85
2023-04-12T17:44:30.403Z,0.50
2023-04-12T17:46:56.986Z,0.60
2023-04-12T17:49:25.108Z,0.65
2023-04-12T17:51:51.741Z,0.73
2023-04-12T17:54:21.289Z,1.02
2023-04-12T17:56:50.944Z,0.80
2023-04-12T17:59:19.825Z,0.95
2023-04-12T18:01:55.381Z,0.90
2023-04-12T18:04:27.460Z,0.98
2023-04-12T18:06:54.706Z,0.93
2023-04-12T18:09:21.286Z,0.93
2023-04-12T18:11:48.058Z,0.80
2023-04-12T18:14:14.840Z,2.08
2023-04-12T18:16:41.686Z,0.88
2023-04-12T18:19:08.457Z,0.52
2023-04-12T18:21:38.746Z,0.40
2023-04-12T18:24:07.821Z,0.68
2023-04-12T18:26:34.491Z,0.70
2023-04-12T18:29:11.568Z,0.80
2023-04-12T18:31:39.719Z,0.88
2023-04-12T18:34:14.695Z,0.60
2023-04-12T18:36:45.257Z,0.50
2023-04-12T18:39:11.932Z,0.50
2023-04-12T18:41:40.902Z,0.70
2023-04-12T18:44:13.097Z,0.70
2023-04-12T18:46:42.639Z,0.77
2023-04-12T18:49:09.332Z,0.63
2023-04-12T18:51:36.129Z,0.75
2023-04-12T18:54:08.149Z,0.70
2023-04-12T18:56:37.038Z,0.40
2023-04-12T18:59:06.840Z,0.70
2023-04-12T19:01:36.687Z,0.50
2023-04-12T19:04:05.583Z,0.60
2023-04-12T19:06:32.893Z,0.55
2023-04-12T19:09:01.937Z,0.30
2023-04-12T19:11:28.518Z,0.70
2023-04-12T19:13:55.978Z,1.20
2023-04-12T19:16:24.256Z,0.40
2023-04-12T19:18:51.025Z,0.50
2023-04-12T19:21:17.584Z,1.08
2023-04-12T19:23:44.257Z,1.27
2023-04-12T19:26:11.608Z,1.05
2023-04-12T19:28:41.034Z,1.10
2023-04-12T19:31:10.587Z,0.90
2023-04-12T19:33:39.734Z,1.00
2023-04-12T19:36:07.197Z,0.88
2023-04-12T19:38:33.867Z,0.80
2023-04-12T19:41:00.767Z,1.10
2023-04-12T19:43:27.495Z,1.17
2023-04-12T19:45:54.207Z,0.70
2023-04-12T19:48:21.952Z,0.88
2023-04-12T19:50:54.942Z,1.10
2023-04-12T19:53:21.561Z,0.80
2023-04-12T19:55:48.142Z,1.00
2023-04-12T19:58:15.337Z,0.95
2023-04-12T20:00:42.040Z,0.80
2023-04-12T20:03:11.672Z,0.90
2023-04-12T20:05:38.485Z,1.05
2023-04-12T20:08:05.141Z,1.08
2023-04-12T20:10:36.911Z,1.25
2023-04-12T20:13:06.775Z,1.05
2023-04-12T20:15:33.429Z,0.98
2023-04-12T20:18:00.124Z,0.90
2023-04-12T20:20:27.183Z,1.17
2023-04-12T20:22:58.691Z,0.85
2023-04-12T20:25:25.768Z,1.23
2023-04-12T20:27:52.660Z,1.25
2023-04-12T20:30:21.011Z,1.08
2023-04-12T20:32:53.990Z,0.90
2023-04-12T20:35:21.315Z,0.98
2023-04-12T20:37:50.440Z,1.00
2023-04-12T20:40:18.386Z,1.70
2023-04-12T20:42:45.163Z,0.95
2023-04-12T20:45:13.093Z,0.90
2023-04-12T20:47:39.781Z,0.90
2023-04-12T20:50:07.426Z,0.75
2023-04-12T20:52:34.876Z,0.88
2023-04-12T20:55:02.087Z,1.15
2023-04-12T20:57:28.983Z,1.23
2023-04-12T20:59:55.593Z,0.75
2023-04-12T21:02:25.134Z,0.90
2023-04-12T21:04:52.034Z,0.63
2023-04-12T21:07:20.063Z,1.05
2023-04-12T21:09:48.820Z,1.10
2023-04-12T21:12:17.431Z,1.10
2023-04-12T21:14:46.621Z,0.90
2023-04-12T21:17:15.509Z,1.20
2023-04-12T21:19:44.659Z,0.85
2023-04-12T21:22:14.926Z,0.98
2023-04-12T21:24:41.628Z,0.60
2023-04-12T21:27:08.415Z,0.82
2023-04-12T21:29:41.457Z,1.08
2023-04-12T21:32:08.817Z,0.82
2023-04-12T21:34:39.145Z,0.98
2023-04-12T21:37:05.739Z,0.68
2023-04-12T21:39:35.766Z,0.70
2023-04-12T21:42:03.035Z,0.68
2023-04-12T21:44:32.694Z,0.60
2023-04-12T21:46:59.310Z,0.80
2023-04-12T21:49:26.543Z,0.60
2023-04-12T21:51:56.790Z,0.60
2023-04-12T21:54:23.418Z,0.60
2023-04-12T21:56:50.308Z,0.70
2023-04-12T21:59:17.221Z,0.65
2023-04-12T22:01:43.851Z,0.70
2023-04-12T22:04:11.251Z,0.68
2023-04-12T22:06:38.025Z,0.68
2023-04-12T22:09:05.247Z,0.82
2023-04-12T22:11:31.869Z,0.63
2023-04-12T22:13:58.531Z,0.77
2023-04-12T22:16:27.833Z,0.40
2023-04-12T22:18:55.470Z,0.40
2023-04-12T22:21:26.374Z,0.50
2023-04-12T22:23:58.367Z,0.50
2023-04-12T22:26:29.517Z,0.60
2023-04-12T22:28:59.024Z,0.60
2023-04-12T22:31:28.145Z,0.45
2023-04-12T22:33:55.103Z,0.63
2023-04-12T22:36:28.533Z,0.40
2023-04-12T22:38:55.984Z,0.63
2023-04-12T22:41:28.151Z,0.90
2023-04-12T22:44:00.998Z,0.50
2023-04-12T22:46:33.435Z,0.55
2023-04-12T22:49:05.582Z,0.47
2023-04-12T22:51:32.560Z,0.50
2023-04-12T22:53:59.555Z,0.50
2023-04-12T22:56:30.978Z,0.47
2023-04-12T22:59:00.067Z,0.40
2023-04-12T23:01:28.660Z,0.68
2023-04-12T23:04:00.880Z,0.55
2023-04-12T23:06:29.678Z,0.40
2023-04-12T23:08:59.909Z,0.60
2023-04-12T23:11:28.576Z,0.50
2023-04-12T23:13:59.727Z,0.50
2023-04-12T23:16:26.683Z,0.50
2023-04-12T23:18:53.451Z,0.65
2023-04-12T23:21:20.013Z,0.57
2023-04-12T23:23:46.801Z,0.88
2023-04-12T23:26:18.963Z,0.40
2023-04-12T23:28:46.049Z,0.75
2023-04-12T23:31:12.763Z,0.63
2023-04-12T23:33:42.866Z,0.50
2023-04-12T23:36:18.753Z,0.50
2023-04-12T23:38:45.370Z,0.40
2023-04-12T23:41:14.452Z,0.50
2023-04-12T23:43:41.627Z,0.57
2023-04-12T23:46:10.479Z,0.65
2023-04-12T23:48:39.385Z,0.65
2023-04-12T23:51:06.686Z,0.60
2023-04-12T23:53:33.312Z,0.60
2023-04-12T23:56:00.012Z,0.80
2023-04-12T23:58:29.570Z,0.50
